createdAt,value
2018-03-12T00:02:16.632Z,25.27
2018-03-12T00:04:45.000Z,26.33
2018-03-12T00:07:13.402Z,29.37
2018-03-12T00:09:41.772Z,34.13
2018-03-12T00:12:10.165Z,25.30
2018-03-12T00:14:38.545Z,26.20
2018-03-12T00:17:06.903Z,23.23
2018-03-12T00:19:35.272Z,21.77
2018-03-12T00:22:03.684Z,20.80
2018-03-12T00:24:32.109Z,23.37
2018-03-12T00:27:00.498Z,24.40
2018-03-12T00:29:29.267Z,20.00
2018-03-12T00:31:57.676Z,19.40
2018-03-12T00:34:26.438Z,27.90
2018-03-12T00:36:54.829Z,24.40
2018-03-12T00:39:23.314Z,21.00
2018-03-12T00:41:52.109Z,23.37
2018-03-12T00:44:20.857Z,26.67
2018-03-12T00:46:49.262Z,23.90
2018-03-12T00:49:17.745Z,24.20
2018-03-12T00:51:46.282Z,25.70
2018-03-12T00:54:14.652Z,25.23
2018-03-12T00:56:43.034Z,24.73
2018-03-12T00:59:11.402Z,26.63
2018-03-12T01:01:39.778Z,26.30
2018-03-12T01:04:08.279Z,26.77
2018-03-12T01:06:36.654Z,21.40
2018-03-12T01:12:02.936Z,19.80
2018-03-12T01:14:31.288Z,21.07
2018-03-12T01:16:59.662Z,22.80
2018-03-12T01:19:28.048Z,25.97
2018-03-12T01:21:56.451Z,22.93
2018-03-12T01:24:24.823Z,21.50
2018-03-12T01:26:53.200Z,22.83
2018-03-12T01:29:21.627Z,25.73
2018-03-12T01:31:49.967Z,23.17
2018-03-12T01:34:18.331Z,25.43
2018-03-12T01:36:46.700Z,26.90
2018-03-12T01:39:15.061Z,24.37
2018-03-12T01:41:43.448Z,24.13
2018-03-12T01:44:11.848Z,30.30
2018-03-12T01:46:40.229Z,18.63
2018-03-12T01:49:08.588Z,20.93
2018-03-12T01:51:36.965Z,25.63
2018-03-12T01:54:05.327Z,26.40
2018-03-12T01:56:33.760Z,20.60
2018-03-12T01:59:02.128Z,21.57
2018-03-12T02:01:30.493Z,22.23
2018-03-12T02:03:58.860Z,21.80
2018-03-12T02:06:27.360Z,19.37
2018-03-12T02:08:55.713Z,20.97
2018-03-12T02:11:24.092Z,22.33
2018-03-12T02:13:52.458Z,24.67
2018-03-12T02:16:20.862Z,21.97
2018-03-12T02:18:49.260Z,22.93
2018-03-12T02:21:17.623Z,30.57
2018-03-12T02:23:46.019Z,22.67
2018-03-12T02:26:15.040Z,25.07
2018-03-12T02:28:43.495Z,28.50
2018-03-12T02:31:11.861Z,19.60
2018-03-12T02:33:40.230Z,25.00
2018-03-12T02:36:08.637Z,20.90
2018-03-12T02:38:36.993Z,25.40
2018-03-12T02:41:05.366Z,32.97
2018-03-12T02:43:33.765Z,22.93
2018-03-12T02:46:02.139Z,28.67
2018-03-12T02:48:30.503Z,23.67
2018-03-12T02:50:58.912Z,29.50
2018-03-12T02:53:27.472Z,23.53
2018-03-12T02:55:55.863Z,26.33
2018-03-12T02:58:24.345Z,21.73
2018-03-12T03:00:52.711Z,23.73
2018-03-12T03:03:21.221Z,19.37
2018-03-12T03:05:49.585Z,22.20
2018-03-12T03:08:17.952Z,20.20
2018-03-12T03:10:46.372Z,20.50
2018-03-12T03:13:14.760Z,25.50
2018-03-12T03:15:43.606Z,21.63
2018-03-12T03:18:12.472Z,18.77
2018-03-12T03:20:40.827Z,25.63
2018-03-12T03:23:09.568Z,25.73
2018-03-12T03:25:37.932Z,24.17
2018-03-12T03:28:06.423Z,19.73
2018-03-12T03:30:37.606Z,23.80
2018-03-12T03:33:05.958Z,25.33
2018-03-12T03:35:34.427Z,19.93
2018-03-12T03:38:02.788Z,28.70
2018-03-12T03:40:31.160Z,23.33
2018-03-12T03:42:59.638Z,23.90
2018-03-12T03:45:28.165Z,28.77
2018-03-12T03:47:56.620Z,22.57
2018-03-12T03:50:25.029Z,22.90
2018-03-12T03:52:53.387Z,29.03
2018-03-12T03:55:21.756Z,23.30
2018-03-12T03:57:50.112Z,25.17
2018-03-12T04:00:18.476Z,23.47
2018-03-12T04:02:46.908Z,24.83
2018-03-12T04:05:15.276Z,23.13
2018-03-12T04:07:43.625Z,26.23
2018-03-12T04:10:12.008Z,25.83
2018-03-12T04:12:40.427Z,20.93
2018-03-12T04:15:08.786Z,32.03
2018-03-12T04:17:37.158Z,22.20
2018-03-12T04:20:05.556Z,25.67
2018-03-12T04:22:33.920Z,22.80
2018-03-12T04:25:02.416Z,26.53
2018-03-12T04:27:30.785Z,31.83
2018-03-12T04:29:59.248Z,23.00
2018-03-12T04:32:27.703Z,20.57
2018-03-12T04:34:56.451Z,22.90
2018-03-12T04:37:24.853Z,25.23
2018-03-12T04:39:53.622Z,26.50
2018-03-12T04:42:21.984Z,23.43
2018-03-12T04:44:50.340Z,24.43
2018-03-12T04:47:18.735Z,25.80
2018-03-12T04:49:47.115Z,30.33
2018-03-12T04:52:15.496Z,26.10
2018-03-12T04:54:43.874Z,28.37
2018-03-12T04:57:12.242Z,22.97
2018-03-12T04:59:40.624Z,23.83
2018-03-12T05:02:08.987Z,22.20
2018-03-12T05:04:37.356Z,23.63
2018-03-12T05:07:05.720Z,24.87
2018-03-12T05:09:34.071Z,28.10
2018-03-12T05:12:02.532Z,31.40
2018-03-12T05:14:30.894Z,24.80
2018-03-12T05:16:59.255Z,25.90
2018-03-12T05:19:27.620Z,23.73
2018-03-12T05:21:56.373Z,25.33
2018-03-12T05:24:24.719Z,29.60
2018-03-12T05:26:53.098Z,27.60
2018-03-12T05:29:21.449Z,23.33
2018-03-12T05:31:49.804Z,28.13
2018-03-12T05:34:18.648Z,33.83
2018-03-12T05:36:47.705Z,22.60
2018-03-12T05:39:16.062Z,32.23
2018-03-12T05:41:44.815Z,28.90
2018-03-12T05:44:13.163Z,33.57
2018-03-12T05:46:41.575Z,32.33
2018-03-12T05:49:09.949Z,31.90
2018-03-12T05:51:38.435Z,32.70
2018-03-12T05:54:06.788Z,33.30
2018-03-12T05:56:35.150Z,30.57
2018-03-12T05:59:03.724Z,26.10
2018-03-12T06:01:32.486Z,27.07
2018-03-12T06:04:00.851Z,28.33
2018-03-12T06:06:29.226Z,29.13
2018-03-12T06:08:57.577Z,28.00
2018-03-12T06:11:25.999Z,21.40
2018-03-12T06:13:54.352Z,25.53
2018-03-12T06:16:22.724Z,28.13
2018-03-12T06:18:51.085Z,23.43
2018-03-12T06:21:19.454Z,35.47
2018-03-12T06:23:47.808Z,34.70
2018-03-12T06:26:16.571Z,33.27
2018-03-12T06:28:44.935Z,24.57
2018-03-12T06:31:13.302Z,24.80
2018-03-12T06:33:41.669Z,27.80
2018-03-12T06:36:10.032Z,25.37
2018-03-12T06:38:38.456Z,33.30
2018-03-12T06:41:06.828Z,30.63
2018-03-12T06:43:35.188Z,40.73
2018-03-12T06:46:03.559Z,43.30
2018-03-12T06:48:31.916Z,46.03
2018-03-12T06:51:00.343Z,36.90
2018-03-12T06:53:28.733Z,33.23
2018-03-12T06:55:57.201Z,34.50
2018-03-12T06:58:25.565Z,35.73
2018-03-12T07:00:53.960Z,36.47
2018-03-12T07:03:22.312Z,37.87
2018-03-12T07:05:50.709Z,38.47
2018-03-12T07:08:19.098Z,32.33
2018-03-12T07:10:47.467Z,44.03
2018-03-12T07:13:15.847Z,37.33
2018-03-12T07:15:44.234Z,42.80
2018-03-12T07:18:12.592Z,32.40
2018-03-12T07:20:40.976Z,36.37
2018-03-12T07:23:09.368Z,31.20
2018-03-12T07:25:37.742Z,43.23
2018-03-12T07:28:06.132Z,36.53
2018-03-12T07:30:34.501Z,29.60
2018-03-12T07:33:02.856Z,31.63
2018-03-12T07:35:31.221Z,34.57
2018-03-12T07:37:59.571Z,31.83
2018-03-12T07:40:27.936Z,29.63
2018-03-12T07:42:56.301Z,29.17
2018-03-12T07:45:24.680Z,28.87
2018-03-12T07:47:53.064Z,24.27
2018-03-12T07:50:21.436Z,24.00
2018-03-12T07:52:50.439Z,25.23
2018-03-12T07:55:18.804Z,33.27
2018-03-12T07:57:47.167Z,30.10
2018-03-12T08:00:15.585Z,27.50
2018-03-12T08:02:44.052Z,40.20
2018-03-12T08:05:12.549Z,27.00
2018-03-12T08:07:40.930Z,27.87
2018-03-12T08:10:09.380Z,23.13
2018-03-12T08:12:37.724Z,29.43
2018-03-12T08:15:06.147Z,30.40
2018-03-12T08:17:34.536Z,35.23
2018-03-12T08:20:02.902Z,28.07
2018-03-12T08:22:31.288Z,30.30
2018-03-12T08:24:59.648Z,28.60
2018-03-12T08:27:28.044Z,35.23
2018-03-12T08:29:56.426Z,31.17
2018-03-12T08:32:24.804Z,30.10
2018-03-12T08:34:53.180Z,32.90
2018-03-12T08:37:21.548Z,30.60
2018-03-12T08:39:49.900Z,28.90
2018-03-12T08:42:18.307Z,30.27
2018-03-12T08:44:46.687Z,24.33
2018-03-12T08:47:15.173Z,28.53
2018-03-12T08:49:43.517Z,24.83
2018-03-12T08:52:11.924Z,27.67
2018-03-12T08:54:40.282Z,25.47
2018-03-12T08:57:08.651Z,31.53
2018-03-12T08:59:37.000Z,21.80
2018-03-12T09:02:05.391Z,29.03
2018-03-12T09:04:34.140Z,36.63
2018-03-12T09:07:02.511Z,26.00
2018-03-12T09:09:30.893Z,25.63
2018-03-12T09:11:59.259Z,27.77
2018-03-12T09:14:27.672Z,26.63
2018-03-12T09:16:56.161Z,34.33
2018-03-12T09:19:24.517Z,26.30
2018-03-12T09:21:52.880Z,27.60
2018-03-12T09:24:21.236Z,38.87
2018-03-12T09:26:49.647Z,31.80
2018-03-12T09:29:18.004Z,39.23
2018-03-12T09:31:46.405Z,30.53
2018-03-12T09:34:14.791Z,27.73
2018-03-12T09:36:43.143Z,26.57
2018-03-12T09:39:11.533Z,29.27
2018-03-12T09:41:39.907Z,30.00
2018-03-12T09:44:08.260Z,31.20
2018-03-12T09:46:36.669Z,47.43
2018-03-12T09:49:05.047Z,35.87
2018-03-12T09:51:33.423Z,30.20
2018-03-12T09:54:01.777Z,37.00
2018-03-12T09:56:30.184Z,33.67
2018-03-12T09:58:58.561Z,30.03
2018-03-12T10:01:26.934Z,30.33
2018-03-12T10:03:55.290Z,28.90
2018-03-12T10:06:23.705Z,31.10
2018-03-12T10:08:52.049Z,30.90
2018-03-12T10:11:20.428Z,34.10
2018-03-12T10:13:48.789Z,41.90
2018-03-12T10:16:17.282Z,44.23
2018-03-12T10:18:45.593Z,48.10
2018-03-12T10:21:13.970Z,40.73
2018-03-12T10:23:42.319Z,46.37
2018-03-12T10:26:10.734Z,44.40
2018-03-12T10:28:39.093Z,51.23
2018-03-12T10:31:07.492Z,51.37
2018-03-12T10:33:35.841Z,45.43
2018-03-12T10:36:04.251Z,45.73
2018-03-12T10:38:32.632Z,47.33
2018-03-12T10:41:00.992Z,49.90
2018-03-12T10:43:29.441Z,48.73
2018-03-12T10:45:58.286Z,52.83
2018-03-12T10:48:26.679Z,59.13
2018-03-12T10:50:55.145Z,48.40
2018-03-12T10:53:23.530Z,44.00
2018-03-12T10:55:51.992Z,44.20
2018-03-12T10:58:20.350Z,41.93
2018-03-12T11:00:54.758Z,43.73
2018-03-12T11:06:24.116Z,38.93
2018-03-12T11:08:52.472Z,45.10
2018-03-12T11:11:20.877Z,40.80
2018-03-12T11:13:49.231Z,41.27
2018-03-12T11:16:17.638Z,40.73
2018-03-12T11:18:46.008Z,53.97
2018-03-12T11:21:14.561Z,49.40
2018-03-12T11:23:42.975Z,52.03
2018-03-12T11:26:11.347Z,57.53
2018-03-12T11:28:39.701Z,55.80
2018-03-12T11:31:08.152Z,43.23
2018-03-12T11:33:36.927Z,47.07
2018-03-12T11:36:05.305Z,52.40
2018-03-12T11:38:33.764Z,59.90
2018-03-12T11:41:02.152Z,46.97
2018-03-12T11:43:30.512Z,51.07
2018-03-12T11:45:58.963Z,51.83
2018-03-12T11:48:27.320Z,54.40
2018-03-12T11:50:56.163Z,50.73
2018-03-12T11:53:24.518Z,56.30
2018-03-12T11:55:52.876Z,55.00
2018-03-12T11:58:21.630Z,52.60
2018-03-12T12:00:49.998Z,65.17
2018-03-12T12:03:18.371Z,61.53
2018-03-12T12:05:46.757Z,55.83
2018-03-12T12:08:15.125Z,66.93
2018-03-12T12:10:43.488Z,63.67
2018-03-12T12:13:11.848Z,65.10
2018-03-12T12:15:40.215Z,54.73
2018-03-12T12:18:09.032Z,74.40
2018-03-12T12:20:37.395Z,65.07
2018-03-12T12:23:05.748Z,62.13
2018-03-12T12:25:34.509Z,70.07
2018-03-12T12:28:02.855Z,64.73
2018-03-12T12:30:31.255Z,64.40
2018-03-12T12:32:59.675Z,72.30
2018-03-12T12:35:28.524Z,71.80
2018-03-12T12:37:56.909Z,63.90
2018-03-12T12:40:25.297Z,65.03
2018-03-12T12:42:53.648Z,67.17
2018-03-12T12:45:22.015Z,70.50
2018-03-12T12:47:50.379Z,91.23
2018-03-12T12:50:18.753Z,80.30
2018-03-12T12:52:47.176Z,81.30
2018-03-12T12:55:15.559Z,84.50
2018-03-12T12:57:43.943Z,75.83
2018-03-12T13:00:12.447Z,73.37
2018-03-12T13:02:41.498Z,64.03
2018-03-12T13:05:10.213Z,75.20
2018-03-12T13:07:38.687Z,74.60
2018-03-12T13:10:07.241Z,72.77
2018-03-12T13:12:35.602Z,75.17
2018-03-12T13:15:04.024Z,72.37
2018-03-12T13:17:32.381Z,72.63
2018-03-12T13:20:00.783Z,74.50
2018-03-12T13:22:29.188Z,79.20
2018-03-12T13:24:57.540Z,70.80
2018-03-12T13:27:25.900Z,76.70
2018-03-12T13:29:54.256Z,73.10
2018-03-12T13:32:22.676Z,70.40
2018-03-12T13:34:51.043Z,69.20
2018-03-12T13:37:19.417Z,76.53
2018-03-12T13:39:47.768Z,68.73
2018-03-12T13:42:16.132Z,75.40
2018-03-12T13:44:44.996Z,79.47
2018-03-12T13:47:13.373Z,82.77
2018-03-12T13:49:41.733Z,72.27
2018-03-12T13:52:10.110Z,75.67
2018-03-12T13:54:38.468Z,73.53
2018-03-12T13:57:06.834Z,76.40
2018-03-12T13:59:35.199Z,73.93
2018-03-12T14:02:03.988Z,77.03
2018-03-12T14:04:32.366Z,76.20
2018-03-12T14:07:01.155Z,77.70
2018-03-12T14:09:29.908Z,94.50
2018-03-12T14:11:58.363Z,83.93
2018-03-12T14:14:26.727Z,77.50
2018-03-12T14:16:55.094Z,86.17
2018-03-12T14:19:23.463Z,77.03
2018-03-12T14:21:51.839Z,77.67
2018-03-12T14:24:20.208Z,82.67
2018-03-12T14:26:49.006Z,76.83
2018-03-12T14:29:17.798Z,77.60
2018-03-12T14:31:46.175Z,76.90
2018-03-12T14:34:14.556Z,75.83
2018-03-12T14:36:42.931Z,70.07
2018-03-12T14:39:11.310Z,79.97
2018-03-12T14:41:39.672Z,79.63
2018-03-12T14:44:08.431Z,76.37
2018-03-12T14:46:36.792Z,80.73
2018-03-12T14:49:05.145Z,83.80
2018-03-12T14:51:33.534Z,81.20
2018-03-12T14:54:01.910Z,84.70
2018-03-12T14:56:30.285Z,78.23
2018-03-12T14:58:58.646Z,78.97
2018-03-12T15:01:27.430Z,75.27
2018-03-12T15:03:56.198Z,80.20
2018-03-12T15:06:24.612Z,76.77
2018-03-12T15:08:52.968Z,87.80
2018-03-12T15:11:21.728Z,82.43
2018-03-12T15:13:50.175Z,72.20
2018-03-12T15:16:18.557Z,66.97
2018-03-12T15:18:46.933Z,73.00
2018-03-12T15:21:15.309Z,78.17
2018-03-12T15:23:43.690Z,84.17
2018-03-12T15:26:12.066Z,90.13
2018-03-12T15:28:40.446Z,86.63
2018-03-12T15:31:08.824Z,86.67
2018-03-12T15:33:37.193Z,88.10
2018-03-12T15:36:05.572Z,97.57
2018-03-12T15:38:33.927Z,90.93
2018-03-12T15:41:02.751Z,106.97
2018-03-12T15:43:31.120Z,104.17
2018-03-12T15:45:59.489Z,102.73
2018-03-12T15:48:27.856Z,111.33
2018-03-12T15:50:56.628Z,117.90
2018-03-12T15:53:24.976Z,110.07
2018-03-12T15:55:53.404Z,107.17
2018-03-12T15:58:22.189Z,118.57
2018-03-12T16:00:51.052Z,125.40
2018-03-12T16:03:19.411Z,115.47
2018-03-12T16:05:47.779Z,131.07
2018-03-12T16:08:16.280Z,131.17
2018-03-12T16:12:28.251Z,149.27
2018-03-12T16:14:56.616Z,142.53
2018-03-12T16:17:24.995Z,120.73
2018-03-12T16:19:53.355Z,168.53
2018-03-12T16:22:22.107Z,143.97
2018-03-12T16:24:50.501Z,161.87
2018-03-12T16:27:18.884Z,157.00
2018-03-12T16:29:47.249Z,153.47
2018-03-12T16:32:15.658Z,206.73
2018-03-12T16:34:44.435Z,176.23
2018-03-12T16:37:12.804Z,202.37
2018-03-12T16:39:41.176Z,204.63
2018-03-12T16:42:09.607Z,213.23
2018-03-12T16:44:37.324Z,158.40
2018-03-12T16:47:05.763Z,158.83
2018-03-12T16:49:34.135Z,156.10
2018-03-12T16:52:02.522Z,170.13
2018-03-12T16:54:33.293Z,174.50
2018-03-12T16:56:59.313Z,160.37
2018-03-12T16:59:27.799Z,162.70
2018-03-12T17:01:56.192Z,193.37
2018-03-12T17:04:24.589Z,152.30
2018-03-12T17:06:53.413Z,143.03
2018-03-12T17:09:21.792Z,179.87
2018-03-12T17:11:50.197Z,194.13
2018-03-12T17:14:18.607Z,182.50
2018-03-12T17:16:47.446Z,157.03
2018-03-12T17:19:15.829Z,157.53
2018-03-12T17:21:44.256Z,132.93
2018-03-12T17:24:13.061Z,227.00
2018-03-12T17:26:41.455Z,173.77
2018-03-12T17:29:09.981Z,203.50
2018-03-12T17:31:38.304Z,198.43
2018-03-12T17:34:06.750Z,149.60
2018-03-12T17:36:35.154Z,192.37
2018-03-12T17:39:03.933Z,159.57
2018-03-12T17:41:32.717Z,175.20
2018-03-12T17:44:01.178Z,206.37
2018-03-12T17:46:29.584Z,186.43
2018-03-12T17:48:58.367Z,154.27
2018-03-12T17:51:27.168Z,149.80
2018-03-12T17:53:55.923Z,139.17
2018-03-12T17:56:24.300Z,130.80
2018-03-12T17:58:52.703Z,140.47
2018-03-12T18:01:21.607Z,111.53
2018-03-12T18:03:50.387Z,93.90
2018-03-12T18:06:19.201Z,92.37
2018-03-12T18:08:47.589Z,98.60
2018-03-12T18:11:16.008Z,90.07
2018-03-12T18:13:44.396Z,89.97
2018-03-12T18:16:12.781Z,85.93
2018-03-12T18:18:41.163Z,88.30
2018-03-12T18:21:09.547Z,93.77
2018-03-12T18:23:38.331Z,91.60
2018-03-12T18:26:06.739Z,102.23
2018-03-12T18:28:35.200Z,90.17
2018-03-12T18:31:04.168Z,95.03
2018-03-12T18:33:32.547Z,65.13
2018-03-12T18:36:00.944Z,90.60
2018-03-12T18:38:30.020Z,91.20
2018-03-12T18:40:58.399Z,94.07
2018-03-12T18:43:26.761Z,72.63
2018-03-12T18:45:55.139Z,74.57
2018-03-12T18:48:23.491Z,77.80
2018-03-12T18:50:51.874Z,67.07
2018-03-12T18:53:20.253Z,63.33
2018-03-12T18:55:48.655Z,56.40
2018-03-12T18:58:17.017Z,51.20
2018-03-12T19:00:45.383Z,47.30
2018-03-12T19:03:13.807Z,45.50
2018-03-12T19:05:42.171Z,41.33
2018-03-12T19:08:10.585Z,43.63
2018-03-12T19:10:39.339Z,40.03
2018-03-12T19:13:07.698Z,33.40
2018-03-12T19:15:36.335Z,28.23
2018-03-12T19:18:05.393Z,27.70
2018-03-12T19:20:34.047Z,33.87
2018-03-12T19:23:03.080Z,38.63
2018-03-12T19:25:32.354Z,36.43
2018-03-12T19:28:01.865Z,35.20
2018-03-12T19:30:31.530Z,32.47
2018-03-12T19:33:00.428Z,36.30
2018-03-12T19:35:33.066Z,33.27
2018-03-12T19:38:02.236Z,33.80
2018-03-12T19:40:30.814Z,40.53
2018-03-12T19:43:00.490Z,31.80
2018-03-12T19:45:28.907Z,33.10
2018-03-12T19:48:10.370Z,29.23
2018-03-12T19:50:38.747Z,35.87
2018-03-12T19:53:07.515Z,43.07
2018-03-12T19:55:36.448Z,33.00
2018-03-12T19:58:04.826Z,32.50
2018-03-12T20:00:33.231Z,33.57
2018-03-12T20:03:01.712Z,38.43
2018-03-12T20:05:30.088Z,35.50
2018-03-12T20:08:00.939Z,40.47
2018-03-12T20:10:36.474Z,38.23
2018-03-12T20:13:19.495Z,34.23
2018-03-12T20:15:48.432Z,41.43
2018-03-12T20:18:17.190Z,32.93
2018-03-12T20:20:45.567Z,35.60
2018-03-12T20:23:13.929Z,34.00
2018-03-12T20:25:42.323Z,36.63
2018-03-12T20:28:10.744Z,36.77
2018-03-12T20:30:39.503Z,41.10
2018-03-12T20:33:08.309Z,41.20
2018-03-12T20:35:37.101Z,42.70
2018-03-12T20:38:05.882Z,37.00
2018-03-12T20:40:34.338Z,46.20
2018-03-12T20:43:02.734Z,36.40
2018-03-12T20:45:31.099Z,38.40
2018-03-12T20:47:59.633Z,45.00
2018-03-12T21:01:40.532Z,37.40
2018-03-12T21:04:09.117Z,36.47
2018-03-12T21:06:37.890Z,36.07
2018-03-12T21:09:06.388Z,38.90
2018-03-12T21:11:34.780Z,39.77
2018-03-12T21:14:03.171Z,36.13
2018-03-12T21:16:31.951Z,37.63
2018-03-12T21:19:00.937Z,35.87
2018-03-12T21:21:29.372Z,41.37
2018-03-12T21:23:58.188Z,32.40
2018-03-12T21:26:26.579Z,35.20
2018-03-12T21:28:55.359Z,47.30
2018-03-12T21:31:24.432Z,42.77
2018-03-12T21:33:54.172Z,39.77
2018-03-12T21:36:22.920Z,42.57
2018-03-12T21:38:52.214Z,47.93
2018-03-12T21:41:20.730Z,36.83
2018-03-12T21:43:50.225Z,36.33
2018-03-12T21:46:19.230Z,29.07
2018-03-12T21:48:47.618Z,30.80
2018-03-12T21:51:16.601Z,32.27
2018-03-12T21:53:45.018Z,33.73
2018-03-12T21:56:13.598Z,34.23
2018-03-12T21:58:42.384Z,35.73
2018-03-12T22:01:11.547Z,36.73
2018-03-12T22:03:39.932Z,36.10
2018-03-12T22:06:08.610Z,39.13
2018-03-12T22:08:37.112Z,37.63
2018-03-12T22:11:05.896Z,32.47
2018-03-12T22:13:34.385Z,35.53
2018-03-12T22:16:03.507Z,33.73
2018-03-12T22:18:31.868Z,32.17
2018-03-12T22:21:00.657Z,36.77
2018-03-12T22:23:29.403Z,35.20
2018-03-12T22:25:57.777Z,33.20
2018-03-12T22:28:26.138Z,41.63
2018-03-12T22:30:54.526Z,45.90
2018-03-12T22:33:22.899Z,47.53
2018-03-12T22:35:51.283Z,42.83
2018-03-12T22:38:19.637Z,48.83
2018-03-12T22:40:48.012Z,46.80
2018-03-12T22:43:16.375Z,56.23
2018-03-12T22:45:45.153Z,55.20
2018-03-12T22:48:14.012Z,63.90
2018-03-12T22:50:42.419Z,66.30
2018-03-12T22:53:11.892Z,56.90
2018-03-12T22:55:40.297Z,65.23
2018-03-12T22:58:08.663Z,72.03
2018-03-12T23:00:37.042Z,66.67
2018-03-12T23:03:05.408Z,73.30
2018-03-12T23:05:33.788Z,73.80
2018-03-12T23:08:02.167Z,72.37
2018-03-12T23:10:30.545Z,72.03
2018-03-12T23:12:58.924Z,76.90
2018-03-12T23:15:27.304Z,75.93
2018-03-12T23:17:55.674Z,84.80
2018-03-12T23:20:24.033Z,72.50
2018-03-12T23:22:52.396Z,70.83
2018-03-12T23:25:20.769Z,74.33
2018-03-12T23:27:49.547Z,77.13
2018-03-12T23:30:18.305Z,77.90
2018-03-12T23:32:46.673Z,85.83
2018-03-12T23:35:15.059Z,84.87
2018-03-12T23:37:43.432Z,93.47
2018-03-12T23:40:11.922Z,82.87
2018-03-12T23:42:40.293Z,82.60
2018-03-12T23:45:08.672Z,86.03
2018-03-12T23:47:37.058Z,91.23
2018-03-12T23:50:05.456Z,91.40
2018-03-12T23:52:33.830Z,95.63
2018-03-12T23:55:02.212Z,101.13
2018-03-12T23:57:30.575Z,90.33
2018-03-12T23:59:58.953Z,98.73
